sensor_id;sensor_type;location;lat;lon;timestamp;pressure;altitude;pressure_sealevel;temperature;humidity
15646;BME280;7922;43.622;1.476;2023-08-24T00:00:11;99800.97;;;29.62;44.71
15646;BME280;7922;43.622;1.476;2023-08-24T00:02:37;99805.59;;;29.62;44.87
15646;BME280;7922;43.622;1.476;2023-08-24T00:05:03;99767.75;;;29.44;45.13
15646;BME280;7922;43.622;1.476;2023-08-24T00:07:28;99675.59;;;28.88;45.17
15646;BME280;7922;43.622;1.476;2023-08-24T00:09:53;99779.53;;;29.44;45.37
15646;BME280;7922;43.622;1.476;2023-08-24T00:12:22;99725.72;;;29.02;45.20
15646;BME280;7922;43.622;1.476;2023-08-24T00:14:47;99603.06;;;28.28;45.44
15646;BME280;7922;43.622;1.476;2023-08-24T00:17:12;99676.47;;;28.74;45.69
15646;BME280;7922;43.622;1.476;2023-08-24T00:19:38;99748.28;;;29.11;45.79
15646;BME280;7922;43.622;1.476;2023-08-24T00:22:03;99737.00;;;28.99;46.28
15646;BME280;7922;43.622;1.476;2023-08-24T00:24:28;99741.41;;;29.00;45.82
15646;BME280;7922;43.622;1.476;2023-08-24T00:26:54;99712.38;;;28.77;46.45
15646;BME280;7922;43.622;1.476;2023-08-24T00:29:19;99700.25;;;28.65;46.25
15646;BME280;7922;43.622;1.476;2023-08-24T00:31:44;99660.22;;;28.36;46.03
15646;BME280;7922;43.622;1.476;2023-08-24T00:34:10;99710.22;;;28.58;46.55
15646;BME280;7922;43.622;1.476;2023-08-24T00:36:35;99744.03;;;28.78;46.94
15646;BME280;7922;43.622;1.476;2023-08-24T00:39:00;99741.03;;;28.73;46.59
15646;BME280;7922;43.622;1.476;2023-08-24T00:41:26;99753.53;;;28.83;46.77
15646;BME280;7922;43.622;1.476;2023-08-24T00:43:51;99770.81;;;28.90;47.13
15646;BME280;7922;43.622;1.476;2023-08-24T00:46:17;99756.56;;;28.73;47.04
15646;BME280;7922;43.622;1.476;2023-08-24T00:48:43;99694.28;;;28.32;47.43
15646;BME280;7922;43.622;1.476;2023-08-24T00:51:08;99695.16;;;28.33;47.38
15646;BME280;7922;43.622;1.476;2023-08-24T00:53:34;99783.91;;;28.79;47.34
15646;BME280;7922;43.622;1.476;2023-08-24T00:56:00;99753.16;;;28.56;47.44
15646;BME280;7922;43.622;1.476;2023-08-24T00:58:27;99671.53;;;28.10;47.63
15646;BME280;7922;43.622;1.476;2023-08-24T01:00:54;99714.03;;;28.34;47.41
15646;BME280;7922;43.622;1.476;2023-08-24T01:03:23;99735.28;;;28.39;48.09
15646;BME280;7922;43.622;1.476;2023-08-24T01:05:49;99639.53;;;27.74;47.99
15646;BME280;7922;43.622;1.476;2023-08-24T01:08:14;99761.25;;;28.49;47.81
15646;BME280;7922;43.622;1.476;2023-08-24T01:11:02;99779.38;;;28.57;47.96
15646;BME280;7922;43.622;1.476;2023-08-24T01:13:53;99740.59;;;28.32;47.99
15646;BME280;7922;43.622;1.476;2023-08-24T01:16:27;99717.00;;;28.10;48.41
15646;BME280;7922;43.622;1.476;2023-08-24T01:18:57;99710.69;;;28.09;48.14
15646;BME280;7922;43.622;1.476;2023-08-24T01:21:27;99779.94;;;28.38;48.64
15646;BME280;7922;43.622;1.476;2023-08-24T01:24:17;99771.91;;;28.36;48.11
15646;BME280;7922;43.622;1.476;2023-08-24T01:26:44;99676.66;;;27.75;48.34
15646;BME280;7922;43.622;1.476;2023-08-24T01:29:10;99675.53;;;27.84;48.01
15646;BME280;7922;43.622;1.476;2023-08-24T01:31:36;99686.16;;;27.94;48.33
15646;BME280;7922;43.622;1.476;2023-08-24T01:34:01;99728.38;;;28.13;48.35
15646;BME280;7922;43.622;1.476;2023-08-24T01:36:27;99653.41;;;27.65;48.15
15646;BME280;7922;43.622;1.476;2023-08-24T01:39:20;99760.72;;;28.31;48.05
15646;BME280;7922;43.622;1.476;2023-08-24T01:41:52;99704.78;;;28.05;48.35
15646;BME280;7922;43.622;1.476;2023-08-24T01:44:20;99730.44;;;28.11;48.37
15646;BME280;7922;43.622;1.476;2023-08-24T01:46:48;99667.50;;;27.68;48.31
15646;BME280;7922;43.622;1.476;2023-08-24T01:49:17;99651.25;;;27.60;48.45
15646;BME280;7922;43.622;1.476;2023-08-24T01:51:43;99742.81;;;28.14;48.35
15646;BME280;7922;43.622;1.476;2023-08-24T01:54:09;99677.16;;;27.71;48.39
15646;BME280;7922;43.622;1.476;2023-08-24T01:56:35;99703.22;;;27.88;48.48
15646;BME280;7922;43.622;1.476;2023-08-24T01:59:00;99731.53;;;28.02;48.04
15646;BME280;7922;43.622;1.476;2023-08-24T02:01:25;99759.16;;;28.14;48.39
15646;BME280;7922;43.622;1.476;2023-08-24T02:03:51;99700.38;;;27.81;48.40
15646;BME280;7922;43.622;1.476;2023-08-24T02:06:16;99753.81;;;28.05;48.44
15646;BME280;7922;43.622;1.476;2023-08-24T02:08:44;99675.16;;;27.65;48.23
15646;BME280;7922;43.622;1.476;2023-08-24T02:11:09;99694.72;;;27.68;48.41
15646;BME280;7922;43.622;1.476;2023-08-24T02:13:35;99711.00;;;27.76;48.80
15646;BME280;7922;43.622;1.476;2023-08-24T02:16:09;99710.84;;;27.78;48.79
15646;BME280;7922;43.622;1.476;2023-08-24T02:18:34;99749.47;;;27.96;48.88
15646;BME280;7922;43.622;1.476;2023-08-24T02:21:00;99622.09;;;27.23;48.96
15646;BME280;7922;43.622;1.476;2023-08-24T02:23:25;99720.00;;;27.77;49.29
15646;BME280;7922;43.622;1.476;2023-08-24T02:25:51;99717.13;;;27.70;48.81
15646;BME280;7922;43.622;1.476;2023-08-24T02:28:16;99741.06;;;27.83;49.22
15646;BME280;7922;43.622;1.476;2023-08-24T02:30:41;99671.44;;;27.43;48.80
15646;BME280;7922;43.622;1.476;2023-08-24T02:33:06;99683.28;;;27.50;48.86
15646;BME280;7922;43.622;1.476;2023-08-24T02:35:32;99748.75;;;27.79;49.11
15646;BME280;7922;43.622;1.476;2023-08-24T02:37:57;99664.66;;;27.39;49.18
15646;BME280;7922;43.622;1.476;2023-08-24T02:40:23;99703.09;;;27.58;48.94
15646;BME280;7922;43.622;1.476;2023-08-24T02:42:48;99614.41;;;27.03;49.70
15646;BME280;7922;43.622;1.476;2023-08-24T02:45:13;99660.31;;;27.29;49.47
15646;BME280;7922;43.622;1.476;2023-08-24T02:47:39;99676.56;;;27.38;49.48
15646;BME280;7922;43.622;1.476;2023-08-24T02:50:05;99604.59;;;26.94;49.71
15646;BME280;7922;43.622;1.476;2023-08-24T02:52:30;99690.47;;;27.43;49.84
15646;BME280;7922;43.622;1.476;2023-08-24T02:54:56;99605.69;;;26.85;49.91
15646;BME280;7922;43.622;1.476;2023-08-24T02:57:21;99588.25;;;26.71;50.13
15646;BME280;7922;43.622;1.476;2023-08-24T02:59:46;99660.03;;;27.16;50.07
15646;BME280;7922;43.622;1.476;2023-08-24T03:02:11;99664.97;;;27.21;50.17
15646;BME280;7922;43.622;1.476;2023-08-24T03:04:37;99665.44;;;27.24;50.32
15646;BME280;7922;43.622;1.476;2023-08-24T03:07:02;99587.63;;;26.61;50.20
15646;BME280;7922;43.622;1.476;2023-08-24T03:09:27;99685.13;;;27.26;50.45
15646;BME280;7922;43.622;1.476;2023-08-24T03:11:52;99652.94;;;27.07;50.59
15646;BME280;7922;43.622;1.476;2023-08-24T03:14:18;99609.84;;;26.73;50.43
15646;BME280;7922;43.622;1.476;2023-08-24T03:16:43;99674.69;;;27.07;50.38
15646;BME280;7922;43.622;1.476;2023-08-24T03:19:08;99720.34;;;27.28;50.73
15646;BME280;7922;43.622;1.476;2023-08-24T03:21:34;99689.50;;;27.13;51.13
15646;BME280;7922;43.622;1.476;2023-08-24T03:23:59;99699.16;;;27.15;50.70
15646;BME280;7922;43.622;1.476;2023-08-24T03:26:24;99684.53;;;27.08;51.35
15646;BME280;7922;43.622;1.476;2023-08-24T03:28:49;99655.44;;;26.85;50.89
15646;BME280;7922;43.622;1.476;2023-08-24T03:31:15;99708.84;;;27.18;51.00
15646;BME280;7922;43.622;1.476;2023-08-24T03:33:41;99685.28;;;27.02;51.57
15646;BME280;7922;43.622;1.476;2023-08-24T03:36:06;99667.00;;;26.87;51.53
15646;BME280;7922;43.622;1.476;2023-08-24T03:38:31;99692.25;;;26.96;51.54
15646;BME280;7922;43.622;1.476;2023-08-24T03:41:03;99689.72;;;26.95;51.45
15646;BME280;7922;43.622;1.476;2023-08-24T03:43:32;99663.50;;;26.71;51.53
15646;BME280;7922;43.622;1.476;2023-08-24T03:45:58;99671.31;;;26.74;51.62
15646;BME280;7922;43.622;1.476;2023-08-24T03:48:23;99693.16;;;26.88;52.27
15646;BME280;7922;43.622;1.476;2023-08-24T03:50:49;99654.72;;;26.60;51.94
15646;BME280;7922;43.622;1.476;2023-08-24T03:53:14;99591.69;;;26.17;52.23
15646;BME280;7922;43.622;1.476;2023-08-24T03:55:39;99661.84;;;26.61;52.11
15646;BME280;7922;43.622;1.476;2023-08-24T03:58:05;99714.00;;;26.96;52.11
15646;BME280;7922;43.622;1.476;2023-08-24T04:00:30;99704.19;;;26.87;52.23
15646;BME280;7922;43.622;1.476;2023-08-24T04:02:55;99688.28;;;26.76;52.48
15646;BME280;7922;43.622;1.476;2023-08-24T04:05:21;99589.19;;;26.16;52.46
15646;BME280;7922;43.622;1.476;2023-08-24T04:07:46;99587.84;;;26.12;52.39
15646;BME280;7922;43.622;1.476;2023-08-24T04:10:11;99654.75;;;26.52;53.09
15646;BME280;7922;43.622;1.476;2023-08-24T04:12:37;99640.50;;;26.42;52.96
15646;BME280;7922;43.622;1.476;2023-08-24T04:15:02;99574.28;;;25.96;53.34
15646;BME280;7922;43.622;1.476;2023-08-24T04:17:28;99688.00;;;26.62;53.49
15646;BME280;7922;43.622;1.476;2023-08-24T04:19:53;99605.66;;;26.06;53.65
15646;BME280;7922;43.622;1.476;2023-08-24T04:22:18;99639.84;;;26.32;53.59
15646;BME280;7922;43.622;1.476;2023-08-24T04:24:44;99695.44;;;26.69;53.53
15646;BME280;7922;43.622;1.476;2023-08-24T04:27:09;99633.09;;;26.28;53.49
15646;BME280;7922;43.622;1.476;2023-08-24T04:29:34;99697.34;;;26.60;54.00
15646;BME280;7922;43.622;1.476;2023-08-24T04:32:00;99700.75;;;26.62;53.48
15646;BME280;7922;43.622;1.476;2023-08-24T04:34:25;99609.06;;;26.08;53.64
15646;BME280;7922;43.622;1.476;2023-08-24T04:36:50;99698.19;;;26.60;53.50
15646;BME280;7922;43.622;1.476;2023-08-24T04:39:16;99703.78;;;26.67;54.06
15646;BME280;7922;43.622;1.476;2023-08-24T04:41:41;99672.75;;;26.45;54.23
15646;BME280;7922;43.622;1.476;2023-08-24T04:44:06;99717.56;;;26.57;54.57
15646;BME280;7922;43.622;1.476;2023-08-24T04:46:32;99617.22;;;26.00;54.54
15646;BME280;7922;43.622;1.476;2023-08-24T04:48:57;99638.72;;;26.10;54.94
15646;BME280;7922;43.622;1.476;2023-08-24T04:51:22;99665.50;;;26.29;55.23
15646;BME280;7922;43.622;1.476;2023-08-24T04:53:48;99713.50;;;26.53;55.15
15646;BME280;7922;43.622;1.476;2023-08-24T04:56:13;99712.47;;;26.54;55.22
15646;BME280;7922;43.622;1.476;2023-08-24T04:58:38;99683.66;;;26.37;55.23
15646;BME280;7922;43.622;1.476;2023-08-24T05:01:04;99715.56;;;26.51;55.22
15646;BME280;7922;43.622;1.476;2023-08-24T05:03:29;99704.84;;;26.50;55.58
15646;BME280;7922;43.622;1.476;2023-08-24T05:05:54;99649.75;;;26.16;55.18
15646;BME280;7922;43.622;1.476;2023-08-24T05:08:20;99704.50;;;26.45;55.57
15646;BME280;7922;43.622;1.476;2023-08-24T05:10:45;99671.94;;;26.28;55.80
15646;BME280;7922;43.622;1.476;2023-08-24T05:13:11;99642.47;;;26.09;55.59
15646;BME280;7922;43.622;1.476;2023-08-24T05:15:36;99653.31;;;26.17;55.41
15646;BME280;7922;43.622;1.476;2023-08-24T05:18:01;99702.31;;;26.48;55.64
15646;BME280;7922;43.622;1.476;2023-08-24T05:20:27;99688.75;;;26.40;55.34
15646;BME280;7922;43.622;1.476;2023-08-24T05:22:52;99687.88;;;26.39;55.50
15646;BME280;7922;43.622;1.476;2023-08-24T05:25:18;99691.63;;;26.47;55.94
15646;BME280;7922;43.622;1.476;2023-08-24T05:27:43;99675.31;;;26.38;55.63
15646;BME280;7922;43.622;1.476;2023-08-24T05:30:09;99680.06;;;26.45;55.51
15646;BME280;7922;43.622;1.476;2023-08-24T05:32:35;99683.31;;;26.48;55.47
15646;BME280;7922;43.622;1.476;2023-08-24T05:35:00;99671.06;;;26.44;55.62
15646;BME280;7922;43.622;1.476;2023-08-24T05:37:26;99670.38;;;26.50;55.01
15646;BME280;7922;43.622;1.476;2023-08-24T05:39:51;99690.38;;;26.66;54.96
15646;BME280;7922;43.622;1.476;2023-08-24T05:42:17;99678.81;;;26.63;54.50
15646;BME280;7922;43.622;1.476;2023-08-24T05:44:42;99746.63;;;26.96;54.27
15646;BME280;7922;43.622;1.476;2023-08-24T05:47:07;99712.31;;;26.95;54.72
15646;BME280;7922;43.622;1.476;2023-08-24T05:49:33;99714.50;;;27.00;53.92
15646;BME280;7922;43.622;1.476;2023-08-24T05:51:58;99729.41;;;27.20;54.45
15646;BME280;7922;43.622;1.476;2023-08-24T05:54:23;99682.41;;;26.95;54.28
15646;BME280;7922;43.622;1.476;2023-08-24T05:56:48;99564.16;;;26.29;54.72
15646;BME280;7922;43.622;1.476;2023-08-24T05:59:14;99710.66;;;27.25;53.75
15646;BME280;7922;43.622;1.476;2023-08-24T06:01:41;99700.97;;;27.23;53.75
15646;BME280;7922;43.622;1.476;2023-08-24T06:04:06;99682.19;;;27.13;53.52
15646;BME280;7922;43.622;1.476;2023-08-24T06:06:31;99714.34;;;27.32;52.80
15646;BME280;7922;43.622;1.476;2023-08-24T06:08:57;99670.56;;;27.19;52.77
15646;BME280;7922;43.622;1.476;2023-08-24T06:11:22;99711.06;;;27.45;52.20
15646;BME280;7922;43.622;1.476;2023-08-24T06:13:48;99662.47;;;27.34;52.67
15646;BME280;7922;43.622;1.476;2023-08-24T06:16:16;99704.91;;;27.66;52.53
15646;BME280;7922;43.622;1.476;2023-08-24T06:18:44;99712.50;;;27.79;52.36
15646;BME280;7922;43.622;1.476;2023-08-24T06:21:09;99689.53;;;27.73;52.47
15646;BME280;7922;43.622;1.476;2023-08-24T06:23:38;99668.34;;;27.69;52.22
15646;BME280;7922;43.622;1.476;2023-08-24T06:26:03;99663.16;;;27.82;51.96
15646;BME280;7922;43.622;1.476;2023-08-24T06:28:28;99703.09;;;28.04;52.08
15646;BME280;7922;43.622;1.476;2023-08-24T06:30:54;99693.03;;;28.05;51.99
15646;BME280;7922;43.622;1.476;2023-08-24T06:33:20;99673.97;;;28.05;51.54
15646;BME280;7922;43.622;1.476;2023-08-24T06:35:45;99671.47;;;28.03;51.35
15646;BME280;7922;43.622;1.476;2023-08-24T06:38:10;99696.06;;;28.25;51.23
15646;BME280;7922;43.622;1.476;2023-08-24T06:40:36;99618.47;;;27.91;51.19
15646;BME280;7922;43.622;1.476;2023-08-24T06:43:01;99712.38;;;28.63;51.62
15646;BME280;7922;43.622;1.476;2023-08-24T06:45:26;99702.78;;;28.67;50.73
15646;BME280;7922;43.622;1.476;2023-08-24T06:47:52;99705.78;;;28.72;51.07
15646;BME280;7922;43.622;1.476;2023-08-24T06:50:17;99697.06;;;28.76;50.23
15646;BME280;7922;43.622;1.476;2023-08-24T06:52:42;99701.91;;;28.96;50.23
15646;BME280;7922;43.622;1.476;2023-08-24T06:55:09;99649.66;;;28.77;49.90
15646;BME280;7922;43.622;1.476;2023-08-24T06:57:34;99666.09;;;28.99;49.25
15646;BME280;7922;43.622;1.476;2023-08-24T06:59:59;99586.06;;;28.55;49.40
15646;BME280;7922;43.622;1.476;2023-08-24T07:02:26;99718.75;;;29.36;49.53
15646;BME280;7922;43.622;1.476;2023-08-24T07:04:51;99721.28;;;29.37;49.28
15646;BME280;7922;43.622;1.476;2023-08-24T07:07:16;99736.69;;;29.60;48.44
15646;BME280;7922;43.622;1.476;2023-08-24T07:09:42;99652.88;;;29.17;48.05
15646;BME280;7922;43.622;1.476;2023-08-24T07:12:08;99668.81;;;29.35;48.35
15646;BME280;7922;43.622;1.476;2023-08-24T07:14:33;99682.09;;;29.60;48.20
15646;BME280;7922;43.622;1.476;2023-08-24T07:16:59;99753.47;;;30.00;48.18
15646;BME280;7922;43.622;1.476;2023-08-24T07:19:24;99708.66;;;29.94;48.69
15646;BME280;7922;43.622;1.476;2023-08-24T07:21:50;99724.09;;;30.08;47.35
15646;BME280;7922;43.622;1.476;2023-08-24T07:24:16;99731.78;;;30.19;47.35
15646;BME280;7922;43.622;1.476;2023-08-24T07:26:41;99640.44;;;29.58;47.30
15646;BME280;7922;43.622;1.476;2023-08-24T07:29:07;99668.78;;;30.00;47.17
15646;BME280;7922;43.622;1.476;2023-08-24T07:31:33;99734.56;;;30.54;46.98
15646;BME280;7922;43.622;1.476;2023-08-24T07:33:58;99683.16;;;30.43;46.99
15646;BME280;7922;43.622;1.476;2023-08-24T07:36:23;99687.66;;;30.57;46.68
15646;BME280;7922;43.622;1.476;2023-08-24T07:38:49;99644.84;;;30.30;45.87
15646;BME280;7922;43.622;1.476;2023-08-24T07:41:14;99651.88;;;30.52;45.92
15646;BME280;7922;43.622;1.476;2023-08-24T07:43:40;99714.22;;;31.05;45.91
15646;BME280;7922;43.622;1.476;2023-08-24T07:46:05;99676.94;;;30.90;44.03
15646;BME280;7922;43.622;1.476;2023-08-24T07:48:30;99608.22;;;30.65;44.03
15646;BME280;7922;43.622;1.476;2023-08-24T07:50:56;99667.09;;;31.09;43.25
15646;BME280;7922;43.622;1.476;2023-08-24T07:53:21;99624.34;;;31.02;42.86
15646;BME280;7922;43.622;1.476;2023-08-24T07:55:47;99594.00;;;30.97;42.54
15646;BME280;7922;43.622;1.476;2023-08-24T07:58:12;99610.91;;;31.20;41.75
15646;BME280;7922;43.622;1.476;2023-08-24T08:00:40;99603.59;;;31.34;41.76
15646;BME280;7922;43.622;1.476;2023-08-24T08:03:05;99677.34;;;31.82;41.35
15646;BME280;7922;43.622;1.476;2023-08-24T08:05:30;99708.56;;;31.94;40.28
15646;BME280;7922;43.622;1.476;2023-08-24T08:07:56;99684.31;;;31.91;40.22
15646;BME280;7922;43.622;1.476;2023-08-24T08:10:21;99700.53;;;32.12;39.93
15646;BME280;7922;43.622;1.476;2023-08-24T08:12:47;99638.13;;;31.68;39.45
15646;BME280;7922;43.622;1.476;2023-08-24T08:15:12;99703.72;;;32.03;38.81
15646;BME280;7922;43.622;1.476;2023-08-24T08:17:37;99635.41;;;31.68;39.26
15646;BME280;7922;43.622;1.476;2023-08-24T08:20:03;99565.25;;;31.40;38.86
15646;BME280;7922;43.622;1.476;2023-08-24T08:22:29;99591.78;;;31.86;38.51
15646;BME280;7922;43.622;1.476;2023-08-24T08:24:54;99630.09;;;32.26;37.90
15646;BME280;7922;43.622;1.476;2023-08-24T08:27:20;99568.63;;;31.89;37.95
15646;BME280;7922;43.622;1.476;2023-08-24T08:29:45;99605.66;;;32.18;37.48
15646;BME280;7922;43.622;1.476;2023-08-24T08:32:11;99710.09;;;32.95;37.26
15646;BME280;7922;43.622;1.476;2023-08-24T08:34:36;99624.56;;;32.46;37.00
15646;BME280;7922;43.622;1.476;2023-08-24T08:37:01;99679.25;;;32.93;37.04
15646;BME280;7922;43.622;1.476;2023-08-24T08:39:27;99619.66;;;32.62;37.15
15646;BME280;7922;43.622;1.476;2023-08-24T08:41:52;99715.00;;;33.31;37.07
15646;BME280;7922;43.622;1.476;2023-08-24T08:44:18;99682.09;;;33.18;36.19
15646;BME280;7922;43.622;1.476;2023-08-24T08:46:46;99714.69;;;33.46;36.47
15646;BME280;7922;43.622;1.476;2023-08-24T08:49:13;99652.78;;;33.12;35.59
15646;BME280;7922;43.622;1.476;2023-08-24T08:51:39;99653.53;;;33.25;35.82
15646;BME280;7922;43.622;1.476;2023-08-24T08:54:08;99679.94;;;33.65;35.66
15646;BME280;7922;43.622;1.476;2023-08-24T08:56:33;99717.88;;;33.81;35.95
15646;BME280;7922;43.622;1.476;2023-08-24T08:59:00;99698.00;;;33.79;35.46
15646;BME280;7922;43.622;1.476;2023-08-24T09:01:26;99643.25;;;33.52;35.48
15646;BME280;7922;43.622;1.476;2023-08-24T09:03:52;99671.19;;;33.74;35.61
15646;BME280;7922;43.622;1.476;2023-08-24T09:06:18;99653.63;;;33.75;35.02
15646;BME280;7922;43.622;1.476;2023-08-24T09:08:43;99657.28;;;33.94;35.11
15646;BME280;7922;43.622;1.476;2023-08-24T09:11:09;99697.91;;;34.17;35.25
15646;BME280;7922;43.622;1.476;2023-08-24T09:13:35;99613.59;;;33.61;35.67
15646;BME280;7922;43.622;1.476;2023-08-24T09:16:07;99578.22;;;33.71;35.03
15646;BME280;7922;43.622;1.476;2023-08-24T09:18:36;99624.59;;;34.11;35.01
15646;BME280;7922;43.622;1.476;2023-08-24T09:21:08;99700.69;;;34.61;35.13
15646;BME280;7922;43.622;1.476;2023-08-24T09:23:33;99572.44;;;33.98;34.62
15646;BME280;7922;43.622;1.476;2023-08-24T09:25:58;99616.34;;;34.30;33.95
15646;BME280;7922;43.622;1.476;2023-08-24T09:28:24;99670.25;;;34.56;34.30
15646;BME280;7922;43.622;1.476;2023-08-24T09:30:55;99599.06;;;34.22;34.74
15646;BME280;7922;43.622;1.476;2023-08-24T09:33:20;99677.28;;;34.70;34.24
15646;BME280;7922;43.622;1.476;2023-08-24T09:35:52;99651.66;;;34.69;34.45
15646;BME280;7922;43.622;1.476;2023-08-24T09:38:22;99656.00;;;34.77;34.00
15646;BME280;7922;43.622;1.476;2023-08-24T09:40:52;99595.88;;;34.44;33.85
15646;BME280;7922;43.622;1.476;2023-08-24T09:43:18;99668.03;;;35.01;33.96
15646;BME280;7922;43.622;1.476;2023-08-24T09:45:51;99666.97;;;35.14;33.83
15646;BME280;7922;43.622;1.476;2023-08-24T09:48:17;99673.91;;;35.35;33.26
15646;BME280;7922;43.622;1.476;2023-08-24T09:50:47;99626.59;;;35.08;33.68
15646;BME280;7922;43.622;1.476;2023-08-24T09:53:19;99671.31;;;35.21;33.48
15646;BME280;7922;43.622;1.476;2023-08-24T09:55:53;99685.09;;;35.21;33.77
15646;BME280;7922;43.622;1.476;2023-08-24T09:58:19;99661.94;;;35.11;33.75
15646;BME280;7922;43.622;1.476;2023-08-24T10:00:46;99673.25;;;35.21;34.04
15646;BME280;7922;43.622;1.476;2023-08-24T10:03:14;99687.00;;;35.51;33.16
15646;BME280;7922;43.622;1.476;2023-08-24T10:05:40;99655.72;;;35.45;33.52
15646;BME280;7922;43.622;1.476;2023-08-24T10:08:06;99606.31;;;35.32;33.31
15646;BME280;7922;43.622;1.476;2023-08-24T10:10:34;99676.06;;;35.98;32.93
15646;BME280;7922;43.622;1.476;2023-08-24T10:13:49;99649.34;;;35.75;32.62
15646;BME280;7922;43.622;1.476;2023-08-24T10:15:48;99680.28;;;35.89;32.38
15646;BME280;7922;43.622;1.476;2023-08-24T10:18:18;99650.53;;;35.79;32.90
15646;BME280;7922;43.622;1.476;2023-08-24T10:20:44;99671.91;;;35.96;32.58
15646;BME280;7922;43.622;1.476;2023-08-24T10:23:14;99663.38;;;35.85;32.84
15646;BME280;7922;43.622;1.476;2023-08-24T10:25:40;99596.72;;;35.65;32.82
15646;BME280;7922;43.622;1.476;2023-08-24T10:28:06;99623.94;;;35.97;32.12
15646;BME280;7922;43.622;1.476;2023-08-24T10:30:34;99623.50;;;36.00;32.12
15646;BME280;7922;43.622;1.476;2023-08-24T10:33:00;99543.41;;;35.71;31.53
15646;BME280;7922;43.622;1.476;2023-08-24T10:35:26;99587.00;;;35.98;32.04
15646;BME280;7922;43.622;1.476;2023-08-24T10:37:52;99577.28;;;35.83;32.18
15646;BME280;7922;43.622;1.476;2023-08-24T10:40:37;99655.38;;;36.19;31.67
15646;BME280;7922;43.622;1.476;2023-08-24T10:43:03;99665.09;;;36.22;31.95
15646;BME280;7922;43.622;1.476;2023-08-24T10:46:01;99687.38;;;36.44;32.60
15646;BME280;7922;43.622;1.476;2023-08-24T10:48:28;99682.47;;;36.57;32.07
15646;BME280;7922;43.622;1.476;2023-08-24T10:51:21;99686.03;;;36.70;31.37
15646;BME280;7922;43.622;1.476;2023-08-24T10:56:17;99675.66;;;36.88;31.40
15646;BME280;7922;43.622;1.476;2023-08-24T10:58:43;99663.78;;;36.88;31.24
15646;BME280;7922;43.622;1.476;2023-08-24T11:01:19;99663.63;;;36.95;31.29
15646;BME280;7922;43.622;1.476;2023-08-24T11:03:54;99664.19;;;36.80;30.84
15646;BME280;7922;43.622;1.476;2023-08-24T11:06:25;99667.50;;;36.94;31.06
15646;BME280;7922;43.622;1.476;2023-08-24T11:09:05;99630.91;;;36.75;31.24
15646;BME280;7922;43.622;1.476;2023-08-24T11:11:31;99663.75;;;37.12;30.37
15646;BME280;7922;43.622;1.476;2023-08-24T11:14:18;99626.19;;;36.99;30.60
15646;BME280;7922;43.622;1.476;2023-08-24T11:16:45;99626.59;;;37.19;30.73
15646;BME280;7922;43.622;1.476;2023-08-24T11:19:11;99623.38;;;37.10;29.45
15646;BME280;7922;43.622;1.476;2023-08-24T11:21:39;99645.50;;;37.27;29.52
15646;BME280;7922;43.622;1.476;2023-08-24T11:24:05;99638.47;;;37.20;28.91
15646;BME280;7922;43.622;1.476;2023-08-24T11:26:31;99646.34;;;37.28;28.72
15646;BME280;7922;43.622;1.476;2023-08-24T11:28:56;99642.16;;;37.25;28.90
15646;BME280;7922;43.622;1.476;2023-08-24T11:31:21;99617.47;;;37.19;28.84
15646;BME280;7922;43.622;1.476;2023-08-24T11:33:47;99608.31;;;37.18;28.72
15646;BME280;7922;43.622;1.476;2023-08-24T11:36:12;99643.56;;;37.56;27.94
15646;BME280;7922;43.622;1.476;2023-08-24T11:38:42;99649.44;;;37.60;28.20
15646;BME280;7922;43.622;1.476;2023-08-24T11:41:19;99626.31;;;37.49;28.16
15646;BME280;7922;43.622;1.476;2023-08-24T11:43:46;99632.00;;;37.43;28.71
15646;BME280;7922;43.622;1.476;2023-08-24T11:46:12;99574.94;;;37.20;28.58
15646;BME280;7922;43.622;1.476;2023-08-24T11:48:38;99618.56;;;37.34;28.49
15646;BME280;7922;43.622;1.476;2023-08-24T11:51:04;99637.09;;;37.51;28.29
15646;BME280;7922;43.622;1.476;2023-08-24T11:53:36;99629.91;;;37.67;27.72
15646;BME280;7922;43.622;1.476;2023-08-24T11:56:02;99635.09;;;37.80;28.15
15646;BME280;7922;43.622;1.476;2023-08-24T11:58:27;99532.97;;;37.40;27.49
15646;BME280;7922;43.622;1.476;2023-08-24T12:00:53;99520.50;;;37.37;27.47
15646;BME280;7922;43.622;1.476;2023-08-24T12:03:18;99613.84;;;37.80;27.65
15646;BME280;7922;43.622;1.476;2023-08-24T12:05:43;99627.41;;;37.99;28.38
15646;BME280;7922;43.622;1.476;2023-08-24T12:08:10;99630.75;;;38.01;28.51
15646;BME280;7922;43.622;1.476;2023-08-24T12:10:41;99587.34;;;37.68;27.50
15646;BME280;7922;43.622;1.476;2023-08-24T12:13:07;99603.59;;;37.64;27.64
15646;BME280;7922;43.622;1.476;2023-08-24T12:15:36;99583.50;;;37.69;28.62
15646;BME280;7922;43.622;1.476;2023-08-24T12:20:33;99542.28;;;37.67;27.55
15646;BME280;7922;43.622;1.476;2023-08-24T12:22:59;99595.31;;;38.20;27.21
15646;BME280;7922;43.622;1.476;2023-08-24T12:25:24;99526.25;;;37.86;27.64
15646;BME280;7922;43.622;1.476;2023-08-24T12:27:51;99574.09;;;38.25;27.33
15646;BME280;7922;43.622;1.476;2023-08-24T12:30:17;99574.38;;;38.24;26.72
15646;BME280;7922;43.622;1.476;2023-08-24T12:32:47;99518.31;;;38.12;26.97
15646;BME280;7922;43.622;1.476;2023-08-24T12:35:16;99544.16;;;38.39;26.71
15646;BME280;7922;43.622;1.476;2023-08-24T12:37:41;99613.09;;;38.85;26.49
15646;BME280;7922;43.622;1.476;2023-08-24T12:40:07;99620.34;;;38.91;26.01
15646;BME280;7922;43.622;1.476;2023-08-24T12:42:32;99610.13;;;38.91;26.55
15646;BME280;7922;43.622;1.476;2023-08-24T12:44:58;99555.53;;;38.65;26.04
15646;BME280;7922;43.622;1.476;2023-08-24T12:47:23;99571.69;;;38.78;25.31
15646;BME280;7922;43.622;1.476;2023-08-24T12:49:49;99596.06;;;38.98;25.13
15646;BME280;7922;43.622;1.476;2023-08-24T12:52:14;99595.91;;;38.83;24.67
15646;BME280;7922;43.622;1.476;2023-08-24T12:54:39;99590.53;;;38.76;24.09
15646;BME280;7922;43.622;1.476;2023-08-24T12:57:04;99520.91;;;38.40;24.03
15646;BME280;7922;43.622;1.476;2023-08-24T12:59:30;99566.63;;;38.70;24.53
15646;BME280;7922;43.622;1.476;2023-08-24T13:01:55;99566.13;;;38.73;25.12
15646;BME280;7922;43.622;1.476;2023-08-24T13:04:21;99554.09;;;38.62;25.19
15646;BME280;7922;43.622;1.476;2023-08-24T13:06:46;99580.44;;;38.65;24.99
15646;BME280;7922;43.622;1.476;2023-08-24T13:09:11;99576.56;;;38.88;25.61
15646;BME280;7922;43.622;1.476;2023-08-24T13:11:36;99535.03;;;38.66;25.39